Time;durP1;ratioP1;P1;durP2;ratioP2;P2;SDS_P1;SDS_P2;PMS_P1;PMS_P2;Temp;Humidity;BMP_temperature;BMP_pressure;BME280_temperature;BME280_humidity;BME280_pressure;Samples;Min_cycle;Max_cycle;Signal;HPM_P1;HPM_P2
2023/01/13 00:00:02;;;;;;;2.72;1.10;;;9.70;99.90;;;;;;5011998;28;20789;-62
2023/01/13 00:02:29;;;;;;;1.47;0.90;;;9.80;99.90;;;;;;5012796;28;20475;-61
2023/01/13 00:04:56;;;;;;;1.08;0.82;;;9.70;99.90;;;;;;5012315;28;20413;-61
2023/01/13 00:07:23;;;;;;;1.00;0.80;;;9.70;99.90;;;;;;5011936;28;20421;-62
2023/01/13 00:09:50;;;;;;;0.80;0.77;;;9.80;99.90;;;;;;5011260;28;20421;-61
2023/01/13 00:12:18;;;;;;;1.13;1.00;;;9.80;99.90;;;;;;5011759;28;20413;-62
2023/01/13 00:14:44;;;;;;;1.20;1.10;;;9.80;99.90;;;;;;5010935;28;20420;-62
2023/01/13 00:17:11;;;;;;;1.20;1.00;;;9.80;99.90;;;;;;5011142;28;20420;-62
2023/01/13 00:19:38;;;;;;;1.53;1.10;;;9.80;99.90;;;;;;5011866;28;20424;-63
2023/01/13 00:22:05;;;;;;;1.90;1.10;;;9.80;99.90;;;;;;5011767;28;20420;-61
2023/01/13 00:24:32;;;;;;;2.22;1.27;;;9.90;99.90;;;;;;5011655;28;20424;-62
2023/01/13 00:26:59;;;;;;;1.40;1.30;;;9.90;99.90;;;;;;5014401;28;20420;-62
2023/01/13 00:29:27;;;;;;;1.90;1.40;;;9.90;99.90;;;;;;5015927;28;20475;-62
2023/01/13 00:31:54;;;;;;;1.60;1.40;;;9.90;99.90;;;;;;5016093;28;20425;-62
2023/01/13 00:34:21;;;;;;;1.73;1.40;;;9.90;99.90;;;;;;5016153;28;20522;-62
2023/01/13 00:36:48;;;;;;;1.58;1.40;;;9.90;99.90;;;;;;5015644;28;20515;-61
2023/01/13 00:39:14;;;;;;;1.90;1.40;;;10.00;99.90;;;;;;5015973;28;20759;-61
2023/01/13 00:44:27;;;;;;;1.43;1.17;;;10.00;99.90;;;;;;5015635;28;20484;-62
2023/01/13 00:46:54;;;;;;;1.40;1.00;;;9.90;99.90;;;;;;5015672;28;20443;-63
2023/01/13 00:49:21;;;;;;;1.40;1.00;;;10.00;99.90;;;;;;5015672;28;20420;-63
2023/01/13 00:51:47;;;;;;;1.50;1.20;;;9.90;99.90;;;;;;5015995;28;20462;-62
2023/01/13 00:54:14;;;;;;;1.20;1.00;;;9.90;99.90;;;;;;5015948;28;20439;-60
2023/01/13 00:56:41;;;;;;;1.92;0.90;;;9.90;99.90;;;;;;5015615;28;20432;-62
2023/01/13 00:59:10;;;;;;;1.35;0.65;;;9.90;99.90;;;;;;5015537;28;20766;-62
2023/01/13 01:01:39;;;;;;;0.90;0.73;;;9.90;99.90;;;;;;5015189;28;20865;-63
2023/01/13 01:04:06;;;;;;;1.98;0.82;;;9.90;99.90;;;;;;5015504;28;20419;-63
2023/01/13 01:06:33;;;;;;;1.00;0.80;;;9.90;99.90;;;;;;5015307;28;20412;-60
2023/01/13 01:09:00;;;;;;;1.10;0.80;;;9.90;99.90;;;;;;5015323;28;20420;-63
2023/01/13 01:11:30;;;;;;;1.00;0.70;;;9.90;99.90;;;;;;5015295;28;20420;-62
2023/01/13 01:13:59;;;;;;;0.95;0.75;;;9.90;99.90;;;;;;5015887;28;20425;-61
2023/01/13 01:16:28;;;;;;;1.20;0.80;;;10.00;99.90;;;;;;5015134;28;20442;-61
2023/01/13 01:18:57;;;;;;;1.30;0.70;;;10.00;99.90;;;;;;5015111;28;20511;-63
2023/01/13 01:21:25;;;;;;;1.90;0.70;;;10.00;99.90;;;;;;5015296;28;20482;-62
2023/01/13 01:23:52;;;;;;;1.23;1.13;;;9.90;99.90;;;;;;5015030;28;20507;-61
2023/01/13 01:26:21;;;;;;;1.40;1.30;;;9.90;99.90;;;;;;5014952;28;20408;-62
2023/01/13 01:28:48;;;;;;;2.70;1.17;;;9.80;99.90;;;;;;5014498;28;20440;-61
2023/01/13 01:31:16;;;;;;;1.80;1.00;;;9.70;99.90;;;;;;5015062;28;20508;-62
2023/01/13 01:33:45;;;;;;;1.50;0.90;;;9.60;99.90;;;;;;5014868;28;20460;-61
2023/01/13 01:36:15;;;;;;;1.60;0.97;;;9.60;99.90;;;;;;5015836;28;20774;-61
2023/01/13 01:38:41;;;;;;;1.50;0.70;;;9.50;99.90;;;;;;5014338;28;20461;-61
2023/01/13 01:41:09;;;;;;;1.77;1.10;;;9.50;99.90;;;;;;5015188;28;20417;-60
2023/01/13 01:44:01;;;;;;;1.15;1.00;;;9.50;99.90;;;;;;5015028;28;20417;-62
2023/01/13 01:46:30;;;;;;;0.93;0.80;;;9.50;99.90;;;;;;5014596;28;20450;-61
2023/01/13 01:49:02;;;;;;;1.10;0.90;;;9.50;99.90;;;;;;5014398;28;20430;-62
2023/01/13 01:51:34;;;;;;;1.20;1.10;;;9.50;99.90;;;;;;5014537;28;20519;-62
2023/01/13 01:54:03;;;;;;;2.33;1.10;;;9.50;99.90;;;;;;5014559;28;20431;-62
2023/01/13 01:56:32;;;;;;;1.65;1.20;;;9.50;99.90;;;;;;5014930;28;20442;-61
2023/01/13 01:58:59;;;;;;;1.63;1.25;;;9.60;99.90;;;;;;5014873;28;20486;-63
2023/01/13 02:01:26;;;;;;;1.77;1.30;;;9.60;99.90;;;;;;5014390;28;20421;-62
2023/01/13 02:03:59;;;;;;;2.00;1.48;;;9.60;99.90;;;;;;5014267;28;20425;-61
2023/01/13 02:06:27;;;;;;;1.58;1.20;;;9.60;99.90;;;;;;5014257;28;20458;-61
2023/01/13 02:08:56;;;;;;;2.30;1.20;;;9.60;99.90;;;;;;5014165;28;20428;-61
2023/01/13 02:14:09;;;;;;;1.52;1.00;;;9.60;99.90;;;;;;4980925;28;20416;-61
2023/01/13 02:16:39;;;;;;;1.33;0.80;;;9.50;99.90;;;;;;5013891;28;20437;-60
2023/01/13 02:19:19;;;;;;;1.92;1.00;;;9.50;99.90;;;;;;5014272;28;20766;-63
2023/01/13 02:22:11;;;;;;;1.80;0.90;;;9.40;99.90;;;;;;5014401;28;20441;-62
2023/01/13 02:25:02;;;;;;;2.20;1.20;;;9.40;99.90;;;;;;5014326;28;20429;-61
2023/01/13 02:27:54;;;;;;;2.97;1.23;;;9.40;99.90;;;;;;5014008;28;20458;-62
2023/01/13 02:33:31;;;;;;;4.53;1.10;;;9.30;99.90;;;;;;5013977;28;20844;-62
2023/01/13 02:36:02;;;;;;;2.65;1.10;;;9.20;99.90;;;;;;5013528;28;21001;-62
2023/01/13 02:38:33;;;;;;;3.30;1.60;;;9.10;99.90;;;;;;5013825;28;20465;-63
2023/01/13 02:44:07;;;;;;;3.00;1.20;;;9.10;99.90;;;;;;5013471;28;20753;-63
2023/01/13 02:46:43;;;;;;;5.05;1.33;;;9.00;99.90;;;;;;5013615;28;20420;-60
2023/01/13 02:49:15;;;;;;;3.65;1.35;;;9.00;99.90;;;;;;5012662;28;20477;-61
2023/01/13 02:51:45;;;;;;;4.20;1.20;;;8.90;99.90;;;;;;5014023;28;20416;-63
2023/01/13 02:54:17;;;;;;;2.27;1.10;;;8.90;99.90;;;;;;5013949;28;20424;-63
2023/01/13 02:56:47;;;;;;;3.15;1.20;;;8.90;99.90;;;;;;5013315;28;20520;-61
2023/01/13 02:59:14;;;;;;;3.35;1.30;;;8.90;99.90;;;;;;5013305;28;20425;-62
2023/01/13 03:01:42;;;;;;;5.50;1.30;;;8.90;99.90;;;;;;5013161;28;20423;-62
2023/01/13 03:04:14;;;;;;;4.03;1.55;;;8.80;99.90;;;;;;5013085;28;20515;-62
2023/01/13 03:06:50;;;;;;;4.28;1.60;;;8.80;99.90;;;;;;5012948;28;20432;-62
2023/01/13 03:09:20;;;;;;;6.47;1.60;;;8.80;99.90;;;;;;5013103;28;20412;-63
2023/01/13 03:11:55;;;;;;;5.90;2.00;;;8.80;99.90;;;;;;5013124;28;20423;-63
2023/01/13 03:14:30;;;;;;;6.13;1.63;;;8.80;99.90;;;;;;5013163;28;20605;-62
2023/01/13 03:17:13;;;;;;;10.27;2.05;;;8.80;99.90;;;;;;5013299;28;20557;-60
2023/01/13 03:19:49;;;;;;;5.15;1.60;;;8.80;99.90;;;;;;5013327;28;20436;-61
2023/01/13 03:22:22;;;;;;;8.68;2.15;;;8.70;99.90;;;;;;5013498;28;20755;-61
2023/01/13 03:24:55;;;;;;;6.68;1.90;;;8.70;99.90;;;;;;5013284;28;20428;-61
2023/01/13 03:27:26;;;;;;;9.25;2.22;;;8.70;99.90;;;;;;5012801;28;20422;-62
2023/01/13 03:29:58;;;;;;;5.30;1.60;;;8.70;99.90;;;;;;5012602;28;20428;-61
2023/01/13 03:32:30;;;;;;;6.10;1.90;;;8.70;99.90;;;;;;5012808;28;20420;-61
2023/01/13 03:35:03;;;;;;;6.72;1.90;;;8.70;99.90;;;;;;5012718;28;20458;-62
2023/01/13 03:37:34;;;;;;;8.60;1.98;;;8.70;99.90;;;;;;5012322;28;20451;-61
2023/01/13 03:40:05;;;;;;;6.18;1.63;;;8.70;99.90;;;;;;5012321;28;20807;-61
2023/01/13 03:42:34;;;;;;;5.60;1.70;;;8.80;99.90;;;;;;5012499;28;20420;-61
2023/01/13 03:45:06;;;;;;;9.73;2.28;;;8.90;99.90;;;;;;5012433;28;20424;-61
2023/01/13 03:47:41;;;;;;;6.73;1.90;;;8.90;99.90;;;;;;5012620;28;20482;-61
2023/01/13 03:50:12;;;;;;;8.07;2.05;;;8.90;99.90;;;;;;5012223;28;20486;-61
2023/01/13 03:52:44;;;;;;;8.68;1.90;;;8.90;99.90;;;;;;5012369;28;20420;-61
2023/01/13 03:55:14;;;;;;;8.52;2.22;;;8.80;99.90;;;;;;5011990;28;20927;-60
2023/01/13 03:57:47;;;;;;;9.27;2.13;;;8.70;99.90;;;;;;5012058;28;20941;-61
2023/01/13 04:00:15;;;;;;;6.80;2.00;;;8.70;99.90;;;;;;5012455;28;20901;-61
2023/01/13 04:02:50;;;;;;;6.82;2.08;;;8.70;99.90;;;;;;5012094;28;20443;-62
2023/01/13 04:05:17;;;;;;;5.28;1.90;;;8.80;99.90;;;;;;5013301;28;20866;-61
2023/01/13 04:11:05;;;;;;;5.85;2.38;;;8.80;99.90;;;;;;5110583;27;20367;-63
2023/01/13 04:13:36;;;;;;;9.73;2.30;;;8.70;99.90;;;;;;5110424;28;20412;-63
2023/01/13 04:16:06;;;;;;;11.13;3.40;;;8.70;99.90;;;;;;5109912;28;20409;-64
2023/01/13 04:18:33;;;;;;;8.02;2.65;;;8.60;99.90;;;;;;5109873;28;20423;-62
2023/01/13 04:21:01;;;;;;;7.72;2.53;;;8.60;99.90;;;;;;5111680;28;20876;-62
2023/01/13 04:23:29;;;;;;;7.70;2.33;;;8.50;99.90;;;;;;5110474;28;20412;-63
2023/01/13 04:25:56;;;;;;;13.13;2.90;;;8.40;99.90;;;;;;5110279;28;20504;-63
2023/01/13 04:28:25;;;;;;;11.00;2.22;;;8.40;99.90;;;;;;5109823;28;20901;-63
2023/01/13 04:30:52;;;;;;;9.68;2.50;;;8.30;99.90;;;;;;5110261;28;20443;-63
2023/01/13 04:33:19;;;;;;;8.60;2.60;;;8.20;99.90;;;;;;5110189;28;20417;-64
2023/01/13 04:35:46;;;;;;;8.25;2.50;;;8.20;99.90;;;;;;5110678;28;20413;-64
2023/01/13 04:38:15;;;;;;;8.27;2.20;;;8.20;99.90;;;;;;5110845;28;20889;-63
2023/01/13 04:40:42;;;;;;;10.07;2.63;;;8.20;99.90;;;;;;5111327;28;20411;-63
2023/01/13 04:43:09;;;;;;;9.73;2.47;;;8.20;99.90;;;;;;5110847;28;20412;-64
2023/01/13 04:45:37;;;;;;;8.15;2.45;;;8.30;99.90;;;;;;5109608;28;20777;-62
2023/01/13 04:48:05;;;;;;;9.65;2.30;;;8.30;99.90;;;;;;5110651;28;20869;-64
2023/01/13 04:50:32;;;;;;;9.50;2.13;;;8.40;99.90;;;;;;5109356;28;20425;-63
2023/01/13 04:53:01;;;;;;;8.93;2.58;;;8.40;99.90;;;;;;5109344;28;20804;-64
2023/01/13 04:55:28;;;;;;;6.95;2.50;;;8.40;99.90;;;;;;5109528;28;20423;-64
2023/01/13 04:57:55;;;;;;;8.40;2.70;;;8.40;99.90;;;;;;5109817;28;20419;-63
2023/01/13 05:00:23;;;;;;;9.95;2.40;;;8.30;99.90;;;;;;5109483;28;20911;-63
2023/01/13 05:02:51;;;;;;;7.03;3.03;;;8.30;99.90;;;;;;5110881;28;20455;-62
2023/01/13 05:05:18;;;;;;;9.35;3.00;;;8.20;99.90;;;;;;5110290;28;20428;-64
2023/01/13 05:07:45;;;;;;;9.43;2.83;;;8.20;99.90;;;;;;5108718;28;20421;-64
2023/01/13 05:10:12;;;;;;;10.57;2.97;;;8.20;99.90;;;;;;5122609;28;20483;-63
2023/01/13 05:18:09;;;;;;;13.30;3.35;;;8.20;99.90;;;;;;5128828;28;20399;-62
2023/01/13 05:20:36;;;;;;;7.85;2.90;;;8.20;99.90;;;;;;5124628;28;20423;-63
2023/01/13 05:25:48;;;;;;;12.00;2.88;;;8.10;99.90;;;;;;5115209;28;20399;-64
2023/01/13 05:28:15;;;;;;;11.85;3.30;;;8.00;99.90;;;;;;5115157;28;20408;-63
2023/01/13 05:30:44;;;;;;;11.27;2.60;;;8.00;99.90;;;;;;5114773;28;20920;-63
2023/01/13 05:33:14;;;;;;;11.95;3.10;;;7.90;99.90;;;;;;5114942;28;20416;-63
2023/01/13 05:35:42;;;;;;;8.95;2.90;;;7.90;99.90;;;;;;5114687;28;20860;-63
2023/01/13 05:38:09;;;;;;;8.98;2.30;;;7.90;99.90;;;;;;5115134;27;20444;-63
2023/01/13 05:43:23;;;;;;;9.18;3.72;;;8.00;99.90;;;;;;5115508;28;20878;-63
2023/01/13 05:45:53;;;;;;;9.60;3.00;;;7.90;99.90;;;;;;5120674;28;20412;-63
2023/01/13 05:48:23;;;;;;;11.05;3.38;;;7.80;99.90;;;;;;5117196;28;20728;-63
2023/01/13 05:50:51;;;;;;;12.90;3.50;;;7.80;99.90;;;;;;5119461;28;20417;-63
2023/01/13 05:53:18;;;;;;;12.52;3.40;;;7.70;99.90;;;;;;5118652;28;20465;-63
2023/01/13 05:55:46;;;;;;;9.68;3.10;;;7.70;99.90;;;;;;5119163;28;20455;-64
2023/01/13 05:58:14;;;;;;;12.20;3.30;;;7.70;99.90;;;;;;5117102;28;20408;-63
2023/01/13 06:00:41;;;;;;;8.32;3.17;;;7.70;99.90;;;;;;5118219;28;20412;-63
2023/01/13 06:03:08;;;;;;;11.83;3.40;;;7.70;99.90;;;;;;5116640;28;20518;-63
2023/01/13 06:05:37;;;;;;;13.48;3.60;;;7.70;99.90;;;;;;5117884;28;20412;-63
2023/01/13 06:08:06;;;;;;;11.82;3.13;;;7.70;99.90;;;;;;5116601;28;20438;-64
2023/01/13 06:10:33;;;;;;;14.27;3.50;;;7.80;99.90;;;;;;5103806;28;20421;-62
2023/01/13 06:13:00;;;;;;;9.30;3.00;;;7.90;99.90;;;;;;5107788;28;20431;-63
2023/01/13 06:15:27;;;;;;;11.20;3.28;;;8.00;99.90;;;;;;5102376;28;20428;-63
2023/01/13 06:17:55;;;;;;;8.15;3.15;;;8.10;99.90;;;;;;5098594;28;20792;-63
2023/01/13 06:20:23;;;;;;;11.50;3.08;;;8.10;99.90;;;;;;5101024;28;20457;-62
2023/01/13 06:22:53;;;;;;;9.80;3.33;;;8.10;99.90;;;;;;5103598;28;20427;-63
2023/01/13 06:25:26;;;;;;;9.02;2.80;;;8.20;99.90;;;;;;5108194;28;20448;-63
2023/01/13 06:27:55;;;;;;;9.52;2.83;;;8.30;99.90;;;;;;5104221;28;20528;-63
2023/01/13 06:30:22;;;;;;;9.98;3.00;;;8.40;99.90;;;;;;5101429;28;20552;-62
2023/01/13 06:32:52;;;;;;;11.57;2.92;;;8.40;99.90;;;;;;5102677;28;20801;-63
2023/01/13 06:35:22;;;;;;;13.15;3.15;;;8.50;99.90;;;;;;5104886;28;20445;-63
2023/01/13 06:37:53;;;;;;;10.17;3.10;;;8.60;99.90;;;;;;5101674;28;20712;-64
2023/01/13 06:40:21;;;;;;;12.95;3.30;;;8.60;99.90;;;;;;5099063;28;20919;-64
2023/01/13 06:45:32;;;;;;;10.53;2.80;;;8.70;99.90;;;;;;5099235;28;20545;-62
2023/01/13 06:48:00;;;;;;;12.48;3.55;;;8.70;99.90;;;;;;5109241;28;20868;-63
2023/01/13 06:50:27;;;;;;;8.90;2.60;;;8.70;99.90;;;;;;5100873;28;20434;-64
2023/01/13 06:52:56;;;;;;;9.07;3.20;;;8.70;99.90;;;;;;5112360;28;20462;-63
2023/01/13 06:55:23;;;;;;;9.45;3.00;;;8.70;99.90;;;;;;5109460;28;20423;-63
2023/01/13 06:57:51;;;;;;;11.70;2.50;;;8.60;99.90;;;;;;5096957;28;20428;-62
2023/01/13 07:00:19;;;;;;;10.43;2.97;;;8.60;99.90;;;;;;5097708;28;20432;-63
2023/01/13 07:02:46;;;;;;;8.82;2.70;;;8.60;99.90;;;;;;5101874;28;20924;-64
2023/01/13 07:05:13;;;;;;;7.68;2.15;;;8.60;99.90;;;;;;5112935;28;20436;-63
2023/01/13 07:07:40;;;;;;;9.13;2.55;;;8.60;99.90;;;;;;5114700;28;20408;-63
2023/01/13 07:10:11;;;;;;;7.28;2.38;;;8.50;99.90;;;;;;5112537;28;20934;-64
2023/01/13 07:15:20;;;;;;;10.10;2.30;;;8.50;99.90;;;;;;5099820;28;20426;-62
2023/01/13 07:17:46;;;;;;;6.82;1.85;;;8.50;99.90;;;;;;5093826;28;20447;-64
2023/01/13 07:20:13;;;;;;;5.70;1.88;;;8.50;99.90;;;;;;5107990;28;20426;-63
2023/01/13 07:22:40;;;;;;;7.22;2.20;;;8.50;99.90;;;;;;5102047;28;20414;-63
2023/01/13 07:25:10;;;;;;;7.72;1.75;;;8.60;99.90;;;;;;5096115;28;20437;-64
2023/01/13 07:27:37;;;;;;;6.68;2.47;;;8.60;99.90;;;;;;5112365;28;20469;-63
2023/01/13 07:30:04;;;;;;;9.70;2.20;;;8.60;99.90;;;;;;5107262;28;20515;-63
2023/01/13 07:32:32;;;;;;;8.68;2.30;;;8.60;99.90;;;;;;5096110;28;20429;-62
2023/01/13 07:35:04;;;;;;;8.32;2.20;;;8.60;99.90;;;;;;5104735;28;20461;-60
2023/01/13 07:37:32;;;;;;;5.85;1.95;;;8.60;99.90;;;;;;5101976;28;20425;-62
2023/01/13 07:39:58;;;;;;;6.70;1.90;;;8.60;99.90;;;;;;5095070;28;20457;-63
2023/01/13 07:45:12;;;;;;;10.40;2.88;;;8.60;99.90;;;;;;5110542;28;20403;-63
2023/01/13 07:47:39;;;;;;;5.40;1.65;;;8.60;99.90;;;;;;5102272;28;20453;-63
2023/01/13 07:50:07;;;;;;;8.52;2.20;;;8.60;99.90;;;;;;5092738;28;20794;-63
2023/01/13 07:52:34;;;;;;;9.70;2.10;;;8.60;99.90;;;;;;5093220;28;20429;-63
2023/01/13 07:55:00;;;;;;;6.45;2.50;;;8.70;99.90;;;;;;5093232;28;20416;-64
2023/01/13 07:57:29;;;;;;;6.10;1.80;;;8.60;99.90;;;;;;5101096;28;20428;-63
2023/01/13 07:59:55;;;;;;;5.88;1.92;;;8.70;99.90;;;;;;5113512;28;20808;-64
2023/01/13 08:02:22;;;;;;;7.10;2.10;;;8.70;99.90;;;;;;5111068;28;20424;-62
2023/01/13 08:04:49;;;;;;;7.20;2.30;;;8.60;99.90;;;;;;5112929;28;20459;-64
2023/01/13 08:07:16;;;;;;;7.20;2.22;;;8.70;99.90;;;;;;5094822;28;20924;-64
2023/01/13 08:09:43;;;;;;;6.90;1.90;;;8.70;99.90;;;;;;5104313;28;20516;-62
2023/01/13 08:14:55;;;;;;;7.15;2.13;;;8.70;99.90;;;;;;5095490;28;20444;-63
2023/01/13 08:17:22;;;;;;;7.80;1.70;;;8.60;99.90;;;;;;5107711;28;20507;-63
2023/01/13 08:19:49;;;;;;;4.00;1.83;;;8.60;99.90;;;;;;5112391;28;20495;-62
2023/01/13 08:22:16;;;;;;;6.95;2.30;;;8.60;99.90;;;;;;5109831;28;20515;-63
2023/01/13 08:24:43;;;;;;;5.60;1.90;;;8.70;99.90;;;;;;5112542;28;20416;-64
2023/01/13 08:27:09;;;;;;;5.60;2.20;;;8.60;99.90;;;;;;5108337;28;20456;-63
2023/01/13 08:29:36;;;;;;;9.90;2.30;;;8.60;99.90;;;;;;5111858;28;20453;-61
2023/01/13 08:32:06;;;;;;;8.80;2.28;;;8.60;99.90;;;;;;5109547;28;20424;-63
2023/01/13 08:34:33;;;;;;;8.57;2.25;;;8.70;99.90;;;;;;5105874;28;20430;-65
2023/01/13 08:37:00;;;;;;;6.93;2.20;;;8.70;99.90;;;;;;5102562;28;20739;-64
2023/01/13 08:39:26;;;;;;;7.68;2.80;;;8.70;99.90;;;;;;5096203;28;20429;-62
2023/01/13 08:41:57;;;;;;;6.10;2.25;;;8.80;99.90;;;;;;5091932;28;20406;-62
2023/01/13 08:44:24;;;;;;;6.38;2.13;;;8.80;99.90;;;;;;5092670;28;20886;-64
2023/01/13 08:46:51;;;;;;;5.82;2.10;;;8.80;99.90;;;;;;5092850;28;20406;-63
2023/01/13 08:49:20;;;;;;;8.63;2.60;;;8.80;99.90;;;;;;5092351;28;20409;-63
2023/01/13 08:51:48;;;;;;;8.50;2.43;;;8.80;99.90;;;;;;5092426;28;20483;-64
2023/01/13 08:54:15;;;;;;;10.55;2.92;;;8.70;99.90;;;;;;5092198;28;20497;-63
2023/01/13 08:56:42;;;;;;;8.25;2.60;;;8.80;99.90;;;;;;5093680;28;20906;-62
2023/01/13 08:59:12;;;;;;;9.10;2.22;;;8.80;99.90;;;;;;5095789;28;20786;-63
2023/01/13 09:01:39;;;;;;;8.85;2.40;;;8.90;99.90;;;;;;5095526;28;20459;-63
2023/01/13 09:04:07;;;;;;;10.00;2.60;;;8.90;99.90;;;;;;5095660;28;20414;-64
2023/01/13 09:06:35;;;;;;;7.47;2.17;;;9.00;99.90;;;;;;5095323;28;20413;-64
2023/01/13 09:09:01;;;;;;;9.98;2.60;;;9.00;99.90;;;;;;5095184;28;20420;-63
2023/01/13 09:14:18;;;;;;;6.88;2.40;;;9.00;99.90;;;;;;5095268;28;20413;-63
2023/01/13 09:16:45;;;;;;;6.43;2.30;;;9.10;99.90;;;;;;5095360;28;20420;-62
2023/01/13 09:19:12;;;;;;;9.65;2.60;;;9.20;99.90;;;;;;5095008;28;20447;-64
2023/01/13 09:21:40;;;;;;;8.90;2.47;;;9.20;99.70;;;;;;5095150;28;20417;-64
2023/01/13 09:24:08;;;;;;;7.20;2.50;;;9.30;99.20;;;;;;5094894;28;20457;-63
2023/01/13 09:26:35;;;;;;;7.38;2.90;;;9.30;98.40;;;;;;5094958;28;20513;-63
2023/01/13 09:29:01;;;;;;;6.82;2.67;;;9.40;97.70;;;;;;5094761;28;20505;-64
2023/01/13 09:31:28;;;;;;;5.90;2.50;;;9.40;97.30;;;;;;5094742;28;20445;-64
2023/01/13 09:36:40;;;;;;;8.77;2.40;;;9.40;96.80;;;;;;5094934;28;20471;-64
2023/01/13 09:39:07;;;;;;;10.32;2.83;;;9.40;96.80;;;;;;5096030;28;20420;-63
2023/01/13 09:44:29;;;;;;;8.43;2.25;;;9.30;95.90;;;;;;5094531;28;20892;-62
2023/01/13 09:47:02;;;;;;;6.88;2.97;;;9.40;95.60;;;;;;5094719;28;20405;-63
2023/01/13 09:49:35;;;;;;;9.05;2.35;;;9.40;95.80;;;;;;5095336;28;20513;-64
2023/01/13 09:52:10;;;;;;;8.90;2.77;;;9.40;95.80;;;;;;5094764;28;20418;-63
2023/01/13 09:54:41;;;;;;;7.18;2.90;;;9.50;95.70;;;;;;5094570;28;20413;-63
2023/01/13 09:57:10;;;;;;;9.40;2.50;;;9.50;95.50;;;;;;5095328;28;20493;-63
2023/01/13 09:59:37;;;;;;;6.72;2.08;;;9.50;94.90;;;;;;5095167;28;20417;-63
2023/01/13 10:02:24;;;;;;;8.05;2.28;;;9.50;94.60;;;;;;5095106;28;20409;-63
2023/01/13 10:05:10;;;;;;;5.95;2.10;;;9.50;94.10;;;;;;5095736;28;20416;-63
2023/01/13 10:07:43;;;;;;;9.55;3.00;;;9.50;93.90;;;;;;5095251;28;20424;-63
2023/01/13 10:10:14;;;;;;;8.70;3.05;;;9.50;93.80;;;;;;5094531;28;20422;-63
2023/01/13 10:15:29;;;;;;;8.20;2.73;;;9.60;93.20;;;;;;5094601;28;20896;-63
2023/01/13 10:18:02;;;;;;;9.50;2.80;;;9.60;92.80;;;;;;5094753;28;20413;-63
2023/01/13 10:20:35;;;;;;;8.68;2.65;;;9.60;93.30;;;;;;5094179;28;20425;-63
2023/01/13 10:23:10;;;;;;;7.45;2.40;;;9.60;93.40;;;;;;5096119;23;21002;-62
2023/01/13 10:25:50;;;;;;;7.50;2.38;;;9.60;93.20;;;;;;5073037;28;20419;-63
2023/01/13 10:28:18;;;;;;;6.60;2.50;;;9.60;92.90;;;;;;5073373;28;20407;-62
2023/01/13 10:30:47;;;;;;;10.40;2.72;;;9.50;92.70;;;;;;5074030;28;20467;-63
2023/01/13 10:33:16;;;;;;;10.68;3.20;;;9.50;92.60;;;;;;5074012;28;20408;-63
2023/01/13 10:35:56;;;;;;;9.15;2.60;;;9.60;92.80;;;;;;5073100;28;20415;-61
2023/01/13 10:38:26;;;;;;;10.00;2.63;;;9.60;92.70;;;;;;5073328;28;20416;-63
2023/01/13 10:40:54;;;;;;;7.88;2.60;;;9.60;92.40;;;;;;5073993;28;20914;-63
2023/01/13 10:43:22;;;;;;;9.50;3.03;;;9.60;92.10;;;;;;5073039;28;20753;-63
2023/01/13 10:45:57;;;;;;;10.65;2.55;;;9.60;92.10;;;;;;5073502;28;20918;-63
2023/01/13 10:48:32;;;;;;;5.97;2.58;;;9.60;92.20;;;;;;5073169;28;20431;-63
2023/01/13 10:51:11;;;;;;;7.20;2.70;;;9.60;92.10;;;;;;5072956;28;20457;-63
2023/01/13 10:53:50;;;;;;;9.85;2.88;;;9.50;92.20;;;;;;5072724;28;20415;-63
2023/01/13 10:56:18;;;;;;;10.65;2.63;;;9.60;92.00;;;;;;5072676;28;20825;-63
2023/01/13 10:58:45;;;;;;;7.95;2.40;;;9.60;91.40;;;;;;5072781;28;20826;-62
2023/01/13 11:01:24;;;;;;;6.10;2.20;;;9.60;91.10;;;;;;5073069;28;20413;-63
2023/01/13 11:03:52;;;;;;;6.88;2.40;;;9.60;90.50;;;;;;5073163;28;20419;-62
2023/01/13 11:06:22;;;;;;;6.30;2.10;;;9.60;90.00;;;;;;5072829;28;20427;-63
2023/01/13 11:08:54;;;;;;;5.78;2.08;;;9.70;89.10;;;;;;5072454;28;20784;-63
2023/01/13 11:11:43;;;;;;;6.47;2.20;;;9.70;87.40;;;;;;5072396;28;20423;-63
2023/01/13 11:14:35;;;;;;;8.40;2.00;;;9.70;86.40;;;;;;5066999;28;20571;-63
2023/01/13 11:17:19;;;;;;;7.45;2.45;;;9.60;87.20;;;;;;5072703;28;20876;-63
2023/01/13 11:19:52;;;;;;;10.65;3.00;;;9.60;90.00;;;;;;5069007;28;20420;-63
2023/01/13 11:22:25;;;;;;;9.43;2.70;;;9.50;90.80;;;;;;5072475;28;20408;-63
2023/01/13 11:24:56;;;;;;;6.78;2.63;;;9.50;91.30;;;;;;5072009;28;20414;-62
2023/01/13 11:27:36;;;;;;;8.80;2.40;;;9.50;91.70;;;;;;5072318;28;20502;-63
2023/01/13 11:30:09;;;;;;;8.25;2.40;;;9.60;91.70;;;;;;5072311;28;20507;-62
2023/01/13 11:32:52;;;;;;;9.10;2.47;;;9.60;91.60;;;;;;5072001;28;20437;-63
2023/01/13 11:35:21;;;;;;;7.03;2.42;;;9.70;91.40;;;;;;5069358;28;20431;-64
2023/01/13 11:37:53;;;;;;;6.82;2.97;;;9.70;91.30;;;;;;5070011;28;20431;-63
2023/01/13 11:40:30;;;;;;;6.95;2.20;;;9.70;90.80;;;;;;5071984;28;20407;-63
2023/01/13 11:43:07;;;;;;;7.18;2.03;;;9.70;90.50;;;;;;5070542;28;20416;-62
2023/01/13 11:45:41;;;;;;;9.48;2.80;;;9.70;90.30;;;;;;5071811;28;20419;-63
2023/01/13 11:48:13;;;;;;;7.60;2.30;;;9.70;90.00;;;;;;5070604;28;20779;-63
2023/01/13 11:50:46;;;;;;;6.05;2.92;;;9.70;90.10;;;;;;5068603;28;20430;-64
2023/01/13 11:53:35;;;;;;;8.43;2.67;;;9.70;90.10;;;;;;5065297;28;20425;-64
2023/01/13 11:56:26;;;;;;;9.13;2.70;;;9.70;90.50;;;;;;5060723;28;20526;-63
2023/01/13 11:59:17;;;;;;;9.25;2.45;;;9.70;90.60;;;;;;5070527;28;20434;-64
2023/01/13 12:02:11;;;;;;;8.50;2.50;;;9.70;90.90;;;;;;5064136;28;20502;-64
2023/01/13 12:04:43;;;;;;;5.93;2.30;;;9.60;91.20;;;;;;5063058;28;20439;-63
2023/01/13 12:07:17;;;;;;;9.23;3.25;;;9.60;91.30;;;;;;5066716;28;20431;-63
2023/01/13 12:10:00;;;;;;;10.23;2.33;;;9.60;91.50;;;;;;5071545;28;20415;-64
2023/01/13 12:12:38;;;;;;;8.00;2.85;;;9.60;92.10;;;;;;5069307;28;20435;-63
2023/01/13 12:15:34;;;;;;;7.47;2.58;;;9.60;92.30;;;;;;5070175;28;20926;-64
2023/01/13 12:18:34;;;;;;;11.50;2.60;;;9.50;92.20;;;;;;5052470;28;20517;-62
2023/01/13 12:21:11;;;;;;;8.77;2.75;;;9.50;92.20;;;;;;5073722;28;20431;-64
2023/01/13 12:23:43;;;;;;;10.70;2.60;;;9.50;92.20;;;;;;5067871;28;20916;-65
2023/01/13 12:26:12;;;;;;;6.97;3.03;;;9.60;92.70;;;;;;5051630;28;20424;-63
2023/01/13 12:28:46;;;;;;;9.63;3.50;;;9.60;92.70;;;;;;5051047;28;20433;-62
2023/01/13 12:31:14;;;;;;;8.32;2.50;;;9.70;92.50;;;;;;5052438;28;20987;-63
2023/01/13 12:33:53;;;;;;;9.40;3.50;;;9.70;92.60;;;;;;5055131;28;20513;-61
2023/01/13 12:36:28;;;;;;;9.50;2.80;;;9.70;92.80;;;;;;5074957;28;20407;-62
2023/01/13 12:38:58;;;;;;;8.15;2.47;;;9.70;93.50;;;;;;5074351;28;20412;-63
2023/01/13 12:44:15;;;;;;;7.18;2.67;;;9.60;94.70;;;;;;5071524;28;20528;-63
2023/01/13 12:44:27;;;;;;;9.40;3.60;;;9.50;94.90;;;;;;5070919;28;20814;-64
2023/01/13 12:46:55;;;;;;;9.50;2.83;;;9.40;95.10;;;;;;5074327;28;20431;-63
2023/01/13 12:49:32;;;;;;;7.65;2.28;;;9.40;95.60;;;;;;5072212;28;20436;-63
2023/01/13 12:52:13;;;;;;;6.78;2.20;;;9.40;95.40;;;;;;5078316;28;20932;-63
2023/01/13 12:55:03;;;;;;;6.95;2.95;;;9.40;95.60;;;;;;5075506;28;20415;-63
2023/01/13 12:57:33;;;;;;;7.40;2.85;;;9.40;95.30;;;;;;5073294;28;20423;-63
2023/01/13 13:00:16;;;;;;;9.73;2.80;;;9.40;95.10;;;;;;5072691;28;20431;-63
2023/01/13 13:03:03;;;;;;;12.32;3.22;;;9.40;95.30;;;;;;5074992;28;20407;-63
2023/01/13 13:05:48;;;;;;;10.45;3.03;;;9.40;95.70;;;;;;5073331;28;20817;-64
2023/01/13 13:08:24;;;;;;;7.75;3.40;;;9.50;95.30;;;;;;5072616;28;20521;-63
2023/01/13 13:13:16;;;;;;;9.10;2.75;;;9.60;95.20;;;;;;5075222;28;20411;-64
2023/01/13 13:14:03;;;;;;;9.88;3.15;;;9.60;94.70;;;;;;5073927;28;20416;-63
2023/01/13 13:16:53;;;;;;;8.52;3.00;;;9.60;94.60;;;;;;5075612;28;20443;-65
2023/01/13 13:19:45;;;;;;;7.70;3.00;;;9.70;95.10;;;;;;5067084;28;20466;-63
2023/01/13 13:22:18;;;;;;;11.13;3.25;;;9.60;96.00;;;;;;5075257;28;20436;-63
2023/01/13 13:25:21;;;;;;;9.82;2.80;;;9.50;96.90;;;;;;5074201;28;20434;-63
2023/01/13 13:28:15;;;;;;;9.65;2.90;;;9.30;99.60;;;;;;5071714;28;20435;-63
2023/01/13 13:30:49;;;;;;;9.13;3.38;;;8.90;99.90;;;;;;5070132;28;20530;-63
2023/01/13 13:33:34;;;;;;;11.32;3.33;;;8.40;99.90;;;;;;5075124;28;20427;-62
2023/01/13 13:36:13;;;;;;;8.70;3.47;;;7.90;99.90;;;;;;5074989;28;20501;-63
2023/01/13 13:47:35;;;;;;;11.05;4.10;;;7.40;99.90;;;;;;5073573;28;20445;-64
2023/01/13 13:50:11;;;;;;;9.77;3.90;;;7.40;99.90;;;;;;5075889;28;20426;-64
2023/01/13 13:52:41;;;;;;;12.17;4.10;;;7.40;99.90;;;;;;5072409;28;21055;-62
2023/01/13 13:55:16;;;;;;;9.20;4.10;;;7.40;99.90;;;;;;5075125;28;20411;-63
2023/01/13 13:57:46;;;;;;;8.88;3.30;;;7.40;99.90;;;;;;5074821;28;20427;-64
2023/01/13 14:00:22;;;;;;;12.33;3.30;;;7.40;99.90;;;;;;5073928;28;20463;-60
2023/01/13 14:02:52;;;;;;;8.82;2.78;;;7.40;99.90;;;;;;5074027;28;20427;-64
2023/01/13 14:05:23;;;;;;;13.20;9.85;;;7.40;99.90;;;;;;5072787;28;20459;-64
2023/01/13 14:07:57;;;;;;;9.25;3.53;;;7.40;99.90;;;;;;5077904;28;20422;-63
2023/01/13 14:10:30;;;;;;;12.68;3.70;;;7.40;99.90;;;;;;5077409;28;20428;-65
2023/01/13 14:12:56;;;;;;;7.93;3.28;;;7.40;99.90;;;;;;5079301;28;20438;-64